Twin Bridges, CA (95721)

12:59 AM PST on February 14, 2016 (GMT -0800)
Tahoe Keys | | Change Station
CLOSE
Current Station
Personal Weather Station
Location: South Lake Tahoe, CA
Elevation: 6296 ft
Nearby Weather Stations

Elev 6296 ft 38.92 °N, 120.01 °W | Updated 9 minutes ago

Partly Cloudy
Partly Cloudy
32.4 °F
Feels Like 32 °F
N
1.7
Wind Variable Wind from NE

Today
High -- | Low -- °F
--% Chance of Precip.
Yesterday
High -- | Low -- °F
Precip. -- in
Pressure 30.32 in
Visibility 10.0 miles
Clouds Few 10000 ft
Windchill 32 °F
Dew Point 27 °F
Humidity 80%
Rainfall 0.00 in
Snow Depth Not available.
6:52 AM 5:35 PM
Waxing Crescent, 39% visible
METAR KTVL 140853Z AUTO 00000KT 10SM FEW100 00/M04 A3037 RMK AO2 SLP266 T00001044 51001
Pressure 30.32 in
Visibility 10.0 miles
Clouds Few 10000 ft
Windchill 32 °F
Dew Point 27 °F
Humidity 80%
Rainfall 0.00 in
Snow Depth Not available.
6:52 AM 5:35 PM
Waxing Crescent, 39% visible
METAR KTVL 140853Z AUTO 00000KT 10SM FEW100 00/M04 A3037 RMK AO2 SLP266 T00001044 51001

10-Day Weather Forecast

Almanac

Astronomy

Feb. 14, 2016 Rise Set
Actual Time
Civil Twilight
Nautical Twilight
Astronomical Twilight
Moon
Length of Visible Light
Length of Day
Tomorrow will be .
, % of the Moon is Illuminated

Today's Extremes

State Highs State Lows

Community

WunderPhotos

Upload Photos

1,892,763 photos uploaded!

WunderBlog® & News

Nearby

Air Quality

  Air Quality AQ Index Pollutant
Not available.

Snow Depth

Station Depth Elevation

Earthquake Activity

City Distance Mag. Time & Date
Minimum magnitude displayed is 2.5.

Coastal Water Temperatures

Place Temperature

Stations

Nearby Weather Stations

Station Location Temp. Windchill Dew Point Humidity Wind Precip. Elev Updated Type
                   

Watches & Warnings

There are currently no watches in effect.